Time;durP1;ratioP1;P1;durP2;ratioP2;P2;SDS_P1;SDS_P2;PMS_P1;PMS_P2;Temp;Humidity;BMP_temperature;BMP_pressure;BME280_temperature;BME280_humidity;BME280_pressure;Samples;Min_cycle;Max_cycle;Signal;HPM_P1;HPM_P2
2023/02/05 00:02:11;;;;;;;22.23;8.70;;;8.40;99.90;;;;;;5039174;28;20052;-43
2023/02/05 00:04:39;;;;;;;23.42;9.90;;;8.40;99.90;;;;;;5040079;28;20024;-42
2023/02/05 00:07:05;;;;;;;21.17;9.25;;;8.40;99.90;;;;;;5040527;28;20136;-42
2023/02/05 00:09:31;;;;;;;21.63;9.05;;;8.30;99.90;;;;;;5043226;28;20028;-42
2023/02/05 00:11:58;;;;;;;19.88;8.60;;;8.30;99.90;;;;;;5043333;28;20816;-43
2023/02/05 00:14:24;;;;;;;16.33;7.97;;;8.30;99.90;;;;;;5044484;28;20040;-42
2023/02/05 00:16:50;;;;;;;21.33;9.63;;;8.30;99.90;;;;;;5043211;28;20075;-42
2023/02/05 00:19:16;;;;;;;20.52;8.90;;;8.40;99.90;;;;;;5043971;28;20111;-42
2023/02/05 00:21:43;;;;;;;17.73;8.48;;;8.40;99.90;;;;;;5043928;28;20051;-42
2023/02/05 00:24:10;;;;;;;20.75;8.60;;;8.40;99.90;;;;;;5043146;28;20171;-43
2023/02/05 00:26:35;;;;;;;18.40;8.48;;;8.40;99.90;;;;;;5043693;28;20025;-43
2023/02/05 00:29:01;;;;;;;23.85;9.48;;;8.40;99.90;;;;;;5044010;28;20388;-43
2023/02/05 00:31:27;;;;;;;19.48;8.93;;;8.40;99.90;;;;;;5043598;28;20465;-43
2023/02/05 00:33:52;;;;;;;20.73;8.73;;;8.50;99.90;;;;;;5044099;28;20037;-43
2023/02/05 00:36:19;;;;;;;18.65;9.57;;;8.50;99.90;;;;;;5043865;28;20092;-43
2023/02/05 00:38:45;;;;;;;21.88;9.27;;;8.50;99.90;;;;;;5042634;28;20021;-43
2023/02/05 00:41:11;;;;;;;17.85;9.57;;;8.50;99.90;;;;;;5043550;28;20028;-42
2023/02/05 00:43:37;;;;;;;22.17;9.25;;;8.50;99.90;;;;;;5043019;28;20083;-42
2023/02/05 00:46:03;;;;;;;24.15;9.90;;;8.50;99.90;;;;;;5043896;28;20044;-42
2023/02/05 00:48:29;;;;;;;18.90;9.18;;;8.50;99.90;;;;;;5043247;28;20025;-43
2023/02/05 00:50:55;;;;;;;18.50;9.30;;;8.40;99.90;;;;;;5043472;28;20035;-43
2023/02/05 00:53:22;;;;;;;16.38;9.32;;;8.50;99.90;;;;;;5043505;28;20119;-43
2023/02/05 00:55:48;;;;;;;19.33;9.38;;;8.50;99.90;;;;;;5043138;28;20056;-42
2023/02/05 00:58:14;;;;;;;21.98;9.35;;;8.50;99.90;;;;;;5042514;28;20839;-42
2023/02/05 01:00:40;;;;;;;22.23;9.95;;;8.50;99.90;;;;;;5043082;28;20071;-42
2023/02/05 01:03:06;;;;;;;20.10;9.63;;;8.50;99.90;;;;;;5043351;28;20845;-42
2023/02/05 01:05:36;;;;;;;20.73;10.43;;;8.50;99.90;;;;;;5042849;28;20116;-42
2023/02/05 01:08:02;;;;;;;19.15;9.10;;;8.50;99.90;;;;;;5043135;28;20072;-43
2023/02/05 01:10:28;;;;;;;24.25;10.50;;;8.40;99.90;;;;;;5043274;28;20635;-43
2023/02/05 01:12:53;;;;;;;21.88;9.63;;;8.40;99.90;;;;;;5042464;28;20033;-43
2023/02/05 01:15:19;;;;;;;21.15;10.60;;;8.40;99.90;;;;;;5043203;28;20127;-43
2023/02/05 01:17:45;;;;;;;21.92;9.90;;;8.50;99.90;;;;;;5042915;28;20059;-43
2023/02/05 01:20:13;;;;;;;18.85;10.25;;;8.50;99.90;;;;;;5041282;28;20036;-43
2023/02/05 01:22:38;;;;;;;28.75;11.98;;;8.50;99.90;;;;;;5043248;28;20579;-43
2023/02/05 01:25:04;;;;;;;29.83;13.23;;;8.50;99.90;;;;;;5041774;28;20128;-43
2023/02/05 01:27:32;;;;;;;29.45;15.05;;;8.40;99.90;;;;;;5041768;28;20835;-44
2023/02/05 01:29:57;;;;;;;30.05;16.27;;;8.40;99.90;;;;;;5042638;28;20061;-43
2023/02/05 01:32:23;;;;;;;40.08;18.08;;;8.40;99.90;;;;;;5042458;28;20468;-43
2023/02/05 01:34:49;;;;;;;40.47;21.08;;;8.40;99.90;;;;;;5040940;28;20103;-43
2023/02/05 01:37:14;;;;;;;35.88;19.92;;;8.40;99.90;;;;;;5042429;28;20095;-43
2023/02/05 01:39:40;;;;;;;38.30;19.67;;;8.50;99.90;;;;;;5041762;28;20052;-43
2023/02/05 01:42:21;;;;;;;37.13;18.35;;;8.50;99.90;;;;;;5041642;28;20029;-42
2023/02/05 01:45:21;;;;;;;33.25;18.13;;;8.50;99.90;;;;;;5042607;28;20031;-43
2023/02/05 01:47:50;;;;;;;33.50;18.48;;;8.50;99.90;;;;;;5041609;28;20086;-43
2023/02/05 01:50:22;;;;;;;32.10;19.33;;;8.50;99.90;;;;;;5041914;28;20052;-42
2023/02/05 01:52:48;;;;;;;37.47;21.25;;;8.60;99.90;;;;;;5042105;28;20772;-42
2023/02/05 01:55:14;;;;;;;37.55;21.55;;;8.60;99.90;;;;;;5041607;28;20055;-43
2023/02/05 01:57:39;;;;;;;32.50;20.17;;;8.50;99.90;;;;;;5042326;28;20021;-43
2023/02/05 02:00:07;;;;;;;36.47;20.00;;;8.60;99.90;;;;;;5042251;28;20028;-42
2023/02/05 02:02:36;;;;;;;31.52;18.88;;;8.60;99.90;;;;;;5040700;28;20116;-43
2023/02/05 02:05:09;;;;;;;36.35;19.55;;;8.60;99.90;;;;;;5027626;28;20063;-42
2023/02/05 02:07:35;;;;;;;31.85;18.58;;;8.60;99.90;;;;;;5031499;28;20053;-43
2023/02/05 02:10:00;;;;;;;29.35;17.83;;;8.60;99.90;;;;;;5041215;28;20856;-44
2023/02/05 02:12:29;;;;;;;28.10;18.65;;;8.60;99.90;;;;;;5042028;28;20025;-44
2023/02/05 02:15:02;;;;;;;31.90;18.75;;;8.60;99.90;;;;;;5041832;28;20025;-43
2023/02/05 02:17:28;;;;;;;;;;;8.60;99.90;;;;;;5039479;28;20029;-44
2023/02/05 02:20:10;;;;;;;35.25;19.33;;;8.60;99.90;;;;;;5041982;28;20640;-43
2023/02/05 02:23:07;;;;;;;30.50;19.00;;;8.60;99.90;;;;;;5037906;28;20025;-42
2023/02/05 02:25:41;;;;;;;28.73;18.30;;;8.50;99.90;;;;;;5041946;28;20021;-44
2023/02/05 02:28:34;;;;;;;28.38;18.48;;;8.50;99.90;;;;;;5042318;28;20028;-42
2023/02/05 02:31:09;;;;;;;;;;;8.50;99.90;;;;;;5041761;28;20427;-43
2023/02/05 02:33:40;;;;;;;29.02;17.13;;;8.50;99.90;;;;;;5040916;28;19924;-44
2023/02/05 02:36:12;;;;;;;29.75;17.92;;;8.50;99.90;;;;;;5040421;28;20152;-43
2023/02/05 02:38:49;;;;;;;33.28;19.50;;;8.50;99.90;;;;;;5030847;28;20028;-43
2023/02/05 02:41:25;;;;;;;32.03;19.42;;;8.50;99.90;;;;;;5041299;28;20033;-43
2023/02/05 02:44:01;;;;;;;29.05;17.88;;;8.50;99.90;;;;;;5030691;28;20107;-43
2023/02/05 02:46:37;;;;;;;32.15;20.17;;;8.50;99.90;;;;;;5041387;28;20021;-43
2023/02/05 02:49:16;;;;;;;32.75;19.42;;;8.50;99.90;;;;;;5030900;28;20059;-43
2023/02/05 02:51:42;;;;;;;31.30;18.60;;;8.50;99.90;;;;;;5040476;28;20078;-43
2023/02/05 02:54:13;;;;;;;32.13;19.73;;;8.50;99.90;;;;;;5041577;28;20071;-43
2023/02/05 02:56:40;;;;;;;32.78;20.98;;;8.50;99.90;;;;;;5041044;28;20052;-43
2023/02/05 02:59:23;;;;;;;28.70;19.52;;;8.50;99.90;;;;;;5040412;28;20025;-43
2023/02/05 03:01:54;;;;;;;31.35;19.17;;;8.50;99.90;;;;;;5040911;28;20040;-43
2023/02/05 03:04:29;;;;;;;31.17;19.73;;;8.50;99.90;;;;;;5040591;28;20021;-44
2023/02/05 03:06:59;;;;;;;28.73;18.88;;;8.50;99.90;;;;;;5041075;28;20031;-42
2023/02/05 03:09:40;;;;;;;30.20;19.58;;;8.50;99.90;;;;;;5041315;28;20451;-43
2023/02/05 03:12:06;;;;;;;28.15;18.60;;;8.50;99.90;;;;;;5040539;28;20106;-43
2023/02/05 03:14:31;;;;;;;28.75;19.00;;;8.50;99.90;;;;;;5041473;28;20056;-43
2023/02/05 03:16:57;;;;;;;29.55;19.45;;;8.50;99.90;;;;;;5040791;28;20049;-43
2023/02/05 03:19:25;;;;;;;26.48;17.63;;;8.50;99.90;;;;;;5040137;28;20056;-43
2023/02/05 03:21:58;;;;;;;31.10;18.67;;;8.50;99.90;;;;;;5040887;28;20033;-42
2023/02/05 03:24:23;;;;;;;30.02;18.38;;;8.50;99.90;;;;;;5040575;28;20370;-43
2023/02/05 03:26:49;;;;;;;26.95;18.20;;;8.50;99.90;;;;;;5039915;28;20025;-43
2023/02/05 03:29:26;;;;;;;26.05;17.13;;;8.50;99.90;;;;;;5040438;28;20017;-43
2023/02/05 03:32:20;;;;;;;28.08;17.08;;;8.50;99.90;;;;;;5040404;28;20044;-43
2023/02/05 03:35:24;;;;;;;25.75;17.15;;;8.50;99.90;;;;;;5040310;28;20135;-44
2023/02/05 03:38:08;;;;;;;27.70;18.52;;;8.40;99.90;;;;;;5040168;28;20589;-43
2023/02/05 03:41:06;;;;;;;27.00;18.02;;;8.50;99.90;;;;;;5039482;28;20115;-43
2023/02/05 03:43:47;;;;;;;24.98;17.52;;;8.40;99.90;;;;;;5040279;28;20025;-43
2023/02/05 03:46:53;;;;;;;23.40;17.00;;;8.50;99.90;;;;;;5040378;28;20855;-44
2023/02/05 03:49:34;;;;;;;24.25;16.30;;;8.50;99.90;;;;;;5016706;28;20045;-43
2023/02/05 03:52:09;;;;;;;27.02;16.75;;;8.40;99.90;;;;;;5017151;28;20056;-43
2023/02/05 03:54:58;;;;;;;26.05;17.20;;;8.40;99.90;;;;;;5031011;28;20063;-44
2023/02/05 03:57:49;;;;;;;24.10;15.80;;;8.40;99.90;;;;;;5040847;28;20048;-43
2023/02/05 04:00:18;;;;;;;21.90;15.50;;;8.40;99.90;;;;;;5028376;28;20068;-43
2023/02/05 04:02:45;;;;;;;21.90;14.98;;;8.40;99.90;;;;;;5039681;28;20252;-43
2023/02/05 04:05:10;;;;;;;22.58;14.20;;;8.40;99.90;;;;;;5040232;28;20029;-43
2023/02/05 04:07:36;;;;;;;23.10;14.73;;;8.40;99.90;;;;;;5039311;28;20060;-43
2023/02/05 04:10:02;;;;;;;22.33;15.23;;;8.40;99.90;;;;;;5039655;28;20586;-43
2023/02/05 04:12:27;;;;;;;23.75;14.82;;;8.40;99.90;;;;;;5040215;28;20040;-43
2023/02/05 04:14:53;;;;;;;21.90;14.48;;;8.40;99.90;;;;;;5039208;28;20025;-43
2023/02/05 04:17:19;;;;;;;24.45;15.55;;;8.40;99.90;;;;;;5039908;28;20044;-42
2023/02/05 04:19:44;;;;;;;21.88;13.60;;;8.40;99.90;;;;;;5039577;28;20946;-43
2023/02/05 04:22:10;;;;;;;23.92;15.32;;;8.40;99.90;;;;;;5039469;28;20615;-44
2023/02/05 04:24:35;;;;;;;18.95;13.32;;;8.30;99.90;;;;;;5039876;28;20532;-43
2023/02/05 04:27:01;;;;;;;20.88;12.90;;;8.30;99.90;;;;;;5040072;28;20036;-43
2023/02/05 04:29:26;;;;;;;23.65;14.98;;;8.40;99.90;;;;;;5039420;28;20036;-43
2023/02/05 04:31:52;;;;;;;20.58;13.05;;;8.30;99.90;;;;;;5039772;28;20369;-43
2023/02/05 04:34:18;;;;;;;19.98;13.18;;;8.40;99.90;;;;;;5039893;28;20060;-43
2023/02/05 04:36:47;;;;;;;23.88;13.25;;;8.30;99.90;;;;;;5038768;28;20041;-44
2023/02/05 04:39:13;;;;;;;20.40;12.70;;;8.40;99.90;;;;;;5040071;28;20052;-43
2023/02/05 04:41:38;;;;;;;20.67;13.05;;;8.40;99.90;;;;;;5039451;28;20029;-43
2023/02/05 04:44:05;;;;;;;19.55;12.70;;;8.30;99.90;;;;;;5039263;28;20025;-44
2023/02/05 04:46:31;;;;;;;19.65;13.38;;;8.30;99.90;;;;;;5039510;28;20032;-43
2023/02/05 04:48:56;;;;;;;17.50;12.45;;;8.30;99.90;;;;;;5039801;28;20025;-43
2023/02/05 04:51:22;;;;;;;21.25;14.40;;;8.30;99.90;;;;;;5039699;28;20170;-44
2023/02/05 04:53:48;;;;;;;18.80;12.95;;;8.30;99.90;;;;;;5040309;28;20136;-44
2023/02/05 04:56:15;;;;;;;22.55;13.65;;;8.30;99.90;;;;;;5044151;28;20079;-44
2023/02/05 04:58:42;;;;;;;20.52;13.60;;;8.30;99.90;;;;;;5042953;28;20036;-44
2023/02/05 05:01:16;;;;;;;21.85;13.25;;;8.30;99.90;;;;;;5043027;28;20017;-43
2023/02/05 05:03:42;;;;;;;17.85;12.23;;;8.30;99.90;;;;;;5043290;28;20029;-44
2023/02/05 05:06:08;;;;;;;18.77;12.27;;;8.30;99.90;;;;;;5042430;28;20017;-43
2023/02/05 05:08:34;;;;;;;19.63;12.10;;;8.30;99.90;;;;;;5043555;28;20086;-43
2023/02/05 05:11:05;;;;;;;19.98;12.85;;;8.30;99.90;;;;;;5042403;28;20079;-43
2023/02/05 05:13:32;;;;;;;19.10;12.38;;;8.30;99.90;;;;;;5043539;28;20025;-43
2023/02/05 05:15:58;;;;;;;19.30;13.20;;;8.30;99.90;;;;;;5043366;28;20483;-43
2023/02/05 05:18:26;;;;;;;17.38;11.88;;;8.30;99.90;;;;;;5043506;28;20032;-43
2023/02/05 05:20:52;;;;;;;18.60;12.23;;;8.30;99.90;;;;;;5043406;28;20028;-44
2023/02/05 05:23:17;;;;;;;17.60;11.90;;;8.20;99.90;;;;;;5043333;28;20075;-43
2023/02/05 05:25:44;;;;;;;17.70;11.88;;;8.20;99.90;;;;;;5042502;28;20754;-42
2023/02/05 05:28:11;;;;;;;17.73;12.18;;;8.20;99.90;;;;;;5042683;28;20021;-43
2023/02/05 05:30:41;;;;;;;18.48;12.48;;;8.20;99.90;;;;;;5022399;28;20037;-43
2023/02/05 05:33:07;;;;;;;15.45;11.18;;;8.20;99.90;;;;;;5037348;28;20025;-43
2023/02/05 05:35:33;;;;;;;15.25;10.73;;;8.20;99.90;;;;;;5042369;28;20045;-44
2023/02/05 05:37:59;;;;;;;17.58;12.45;;;8.20;99.90;;;;;;5042334;28;20017;-44
2023/02/05 05:46:01;;;;;;;15.68;11.27;;;8.10;99.90;;;;;;5042265;28;20092;-47
2023/02/05 05:48:30;;;;;;;15.90;10.55;;;8.10;99.90;;;;;;5042686;28;20021;-42
2023/02/05 05:50:56;;;;;;;13.35;10.40;;;8.10;99.90;;;;;;5042777;28;20087;-43
2023/02/05 05:53:21;;;;;;;13.13;10.40;;;8.10;99.90;;;;;;5041701;28;20618;-44
2023/02/05 05:55:47;;;;;;;13.15;10.13;;;8.10;99.90;;;;;;5042239;28;20198;-44
2023/02/05 05:58:13;;;;;;;13.20;10.38;;;8.10;99.90;;;;;;5042434;28;20052;-44
2023/02/05 06:00:39;;;;;;;14.55;9.40;;;8.10;99.90;;;;;;5041584;28;20036;-43
2023/02/05 06:03:05;;;;;;;13.07;9.07;;;8.10;99.90;;;;;;5041677;28;20427;-44
2023/02/05 06:05:31;;;;;;;13.07;8.32;;;8.10;99.90;;;;;;5041116;28;20029;-42
2023/02/05 06:07:57;;;;;;;11.63;8.45;;;8.10;99.90;;;;;;5041185;28;20033;-43
2023/02/05 06:10:24;;;;;;;10.20;7.90;;;8.10;99.90;;;;;;5042190;28;20060;-43
2023/02/05 06:12:51;;;;;;;9.07;7.43;;;8.10;99.90;;;;;;5041645;28;20028;-43
2023/02/05 06:15:17;;;;;;;9.38;7.70;;;8.00;99.90;;;;;;5041231;28;20037;-43
2023/02/05 06:17:43;;;;;;;9.02;6.82;;;8.10;99.90;;;;;;5042007;28;20044;-43
2023/02/05 06:20:09;;;;;;;8.20;6.25;;;8.10;99.90;;;;;;5041394;28;20025;-42
2023/02/05 06:22:35;;;;;;;7.38;4.95;;;8.00;99.90;;;;;;5041897;28;20542;-43
2023/02/05 06:25:01;;;;;;;5.28;3.50;;;8.00;99.90;;;;;;5042057;28;20017;-43
2023/02/05 06:27:27;;;;;;;3.70;2.60;;;7.90;99.90;;;;;;5042506;28;20025;-45
2023/02/05 06:29:52;;;;;;;3.45;1.70;;;7.80;99.90;;;;;;5040738;28;20487;-43
2023/02/05 06:32:18;;;;;;;4.72;1.45;;;7.60;99.90;;;;;;5041797;28;20119;-43
2023/02/05 06:34:43;;;;;;;12.23;1.90;;;7.50;99.90;;;;;;5041141;28;20122;-43
2023/02/05 06:37:09;;;;;;;9.82;1.38;;;7.50;99.90;;;;;;5041157;28;20161;-42
2023/02/05 06:39:34;;;;;;;3.83;0.85;;;7.40;99.90;;;;;;5041186;28;20028;-43
2023/02/05 06:42:00;;;;;;;7.78;1.40;;;7.30;99.90;;;;;;5041098;28;20116;-43
2023/02/05 06:44:25;;;;;;;6.63;1.27;;;7.30;99.90;;;;;;5041454;28;20021;-44
2023/02/05 06:46:51;;;;;;;7.32;1.27;;;7.20;99.90;;;;;;5041628;28;20025;-44
2023/02/05 06:49:17;;;;;;;6.55;1.30;;;7.20;99.90;;;;;;5041461;28;20195;-43
2023/02/05 06:51:42;;;;;;;7.47;1.52;;;7.20;99.90;;;;;;5041180;28;20060;-43
2023/02/05 06:54:08;;;;;;;5.07;0.98;;;7.20;99.90;;;;;;5040267;28;20110;-43
2023/02/05 06:56:33;;;;;;;2.75;0.80;;;7.10;99.90;;;;;;5040364;28;20041;-42
2023/02/05 06:58:59;;;;;;;7.22;1.95;;;7.10;99.90;;;;;;5041481;28;20032;-43
2023/02/05 07:01:24;;;;;;;6.60;1.25;;;7.10;99.90;;;;;;5041204;28;20029;-43
2023/02/05 07:03:54;;;;;;;7.13;1.02;;;7.10;99.90;;;;;;5040976;28;20060;-43
2023/02/05 07:06:24;;;;;;;5.28;0.90;;;7.10;99.90;;;;;;5041260;28;20037;-42
2023/02/05 07:08:56;;;;;;;9.30;1.33;;;7.10;99.90;;;;;;5040945;28;20059;-43
2023/02/05 07:11:22;;;;;;;8.05;1.25;;;7.10;99.90;;;;;;5040545;28;20528;-43
2023/02/05 07:13:48;;;;;;;8.38;3.20;;;7.10;99.90;;;;;;5041905;28;20025;-42
2023/02/05 07:16:17;;;;;;;4.32;1.25;;;7.00;99.90;;;;;;5040738;28;20098;-42
2023/02/05 07:18:42;;;;;;;8.73;1.42;;;7.00;99.90;;;;;;5039391;28;20032;-43
2023/02/05 07:21:12;;;;;;;6.38;1.20;;;7.00;99.90;;;;;;5040694;28;20025;-43
2023/02/05 07:23:38;;;;;;;5.43;0.90;;;7.00;99.90;;;;;;5040724;28;20024;-43
2023/02/05 07:26:14;;;;;;;5.78;1.00;;;7.00;99.90;;;;;;5039646;28;20017;-44
2023/02/05 07:28:41;;;;;;;10.85;1.40;;;7.00;99.90;;;;;;5040667;28;20037;-44
2023/02/05 07:31:14;;;;;;;8.02;1.30;;;7.00;99.90;;;;;;5040605;28;20107;-43
2023/02/05 07:33:40;;;;;;;9.18;1.58;;;7.00;99.90;;;;;;5039465;28;20049;-43
2023/02/05 07:36:09;;;;;;;8.23;1.10;;;7.00;99.90;;;;;;5040306;28;20041;-42
2023/02/05 07:38:36;;;;;;;7.75;1.77;;;7.00;99.90;;;;;;5029271;28;20044;-43
2023/02/05 07:41:03;;;;;;;7.15;1.58;;;7.10;99.90;;;;;;5041401;28;20044;-42
2023/02/05 07:43:29;;;;;;;4.13;1.27;;;7.10;99.90;;;;;;5041495;28;20064;-43
2023/02/05 07:45:59;;;;;;;8.85;1.40;;;7.10;99.90;;;;;;5040401;28;20985;-43
2023/02/05 07:48:25;;;;;;;6.88;1.50;;;7.10;99.90;;;;;;5041328;28;20033;-42
2023/02/05 07:50:53;;;;;;;8.23;1.35;;;7.10;99.90;;;;;;5040517;28;20471;-42
2023/02/05 07:53:19;;;;;;;8.45;1.58;;;7.20;99.90;;;;;;5039592;28;20512;-43
2023/02/05 07:55:46;;;;;;;10.60;1.75;;;7.20;99.90;;;;;;5040465;28;20037;-43
2023/02/05 07:58:12;;;;;;;8.65;2.10;;;7.20;99.90;;;;;;5040004;28;20047;-43
2023/02/05 08:00:37;;;;;;;9.65;1.58;;;7.20;99.90;;;;;;5040131;28;20040;-44
2023/02/05 08:03:03;;;;;;;8.25;1.45;;;7.20;99.90;;;;;;5040974;28;20033;-43
2023/02/05 08:05:29;;;;;;;5.93;1.65;;;7.20;99.90;;;;;;5040191;28;20041;-43
2023/02/05 08:07:54;;;;;;;8.10;1.50;;;7.20;99.90;;;;;;5039706;28;20072;-43
2023/02/05 08:10:20;;;;;;;7.15;1.33;;;7.20;99.90;;;;;;5041175;28;20037;-43
2023/02/05 08:12:46;;;;;;;8.90;1.60;;;7.20;99.90;;;;;;5040005;28;20060;-44
2023/02/05 08:15:12;;;;;;;8.57;1.90;;;7.20;99.90;;;;;;5039413;28;20531;-43
2023/02/05 08:17:37;;;;;;;8.07;1.92;;;7.20;99.90;;;;;;5040431;28;20025;-42
2023/02/05 08:20:06;;;;;;;8.93;1.90;;;7.30;99.90;;;;;;5039898;28;20117;-44
2023/02/05 08:22:34;;;;;;;8.82;1.80;;;7.30;99.90;;;;;;5039643;28;20127;-42
2023/02/05 08:25:00;;;;;;;14.02;3.03;;;7.30;99.90;;;;;;5039651;28;20021;-43
2023/02/05 08:27:26;;;;;;;8.90;1.83;;;7.30;99.90;;;;;;5040189;28;20028;-43
2023/02/05 08:29:51;;;;;;;14.45;2.25;;;7.30;99.90;;;;;;5043157;28;20554;-43
2023/02/05 08:32:17;;;;;;;10.95;2.35;;;7.30;99.90;;;;;;5043836;28;20035;-43
2023/02/05 08:34:43;;;;;;;12.05;2.00;;;7.30;99.90;;;;;;5043204;28;20085;-43
2023/02/05 08:37:08;;;;;;;13.15;2.17;;;7.30;99.90;;;;;;5044103;28;20131;-43
2023/02/05 08:39:34;;;;;;;17.08;2.97;;;7.30;99.90;;;;;;5043943;28;20755;-43
2023/02/05 08:42:00;;;;;;;15.25;2.22;;;7.30;99.90;;;;;;5023414;28;20050;-43
2023/02/05 08:44:28;;;;;;;13.10;2.28;;;7.30;99.90;;;;;;5037467;28;20045;-43
2023/02/05 08:46:53;;;;;;;11.70;2.60;;;7.20;99.90;;;;;;5044070;28;20037;-43
2023/02/05 08:49:19;;;;;;;18.00;2.58;;;7.30;99.90;;;;;;5043313;28;20083;-44
2023/02/05 08:51:45;;;;;;;12.38;2.30;;;7.30;99.90;;;;;;5043767;28;20659;-42
2023/02/05 08:54:12;;;;;;;13.55;2.55;;;7.30;99.90;;;;;;5043550;28;20438;-44
2023/02/05 08:56:42;;;;;;;15.23;2.70;;;7.30;99.90;;;;;;5042256;28;20396;-44
2023/02/05 08:59:08;;;;;;;10.73;2.30;;;7.30;99.90;;;;;;5042883;28;20473;-43
2023/02/05 09:01:39;;;;;;;16.05;3.38;;;7.30;99.90;;;;;;5043371;28;20033;-44
2023/02/05 09:04:06;;;;;;;11.88;2.40;;;7.30;99.90;;;;;;5042532;28;20154;-44
2023/02/05 09:06:32;;;;;;;10.50;2.20;;;7.40;99.90;;;;;;5043517;28;20029;-43
2023/02/05 09:08:57;;;;;;;11.63;2.25;;;7.40;99.90;;;;;;5042634;28;20040;-43
2023/02/05 09:11:25;;;;;;;17.65;3.10;;;7.40;99.90;;;;;;5042940;28;20473;-43
2023/02/05 09:13:52;;;;;;;11.25;2.63;;;7.50;99.90;;;;;;5043066;28;20037;-42
2023/02/05 09:16:20;;;;;;;12.13;2.60;;;7.50;99.90;;;;;;5043371;28;20037;-43
2023/02/05 09:18:46;;;;;;;14.98;2.38;;;7.50;99.90;;;;;;5043209;28;20129;-43
2023/02/05 09:21:12;;;;;;;19.23;2.78;;;7.50;99.90;;;;;;5042822;28;20110;-42
2023/02/05 09:23:38;;;;;;;13.70;2.80;;;7.60;99.90;;;;;;5043086;28;20028;-43
2023/02/05 09:26:04;;;;;;;15.35;2.78;;;7.60;99.90;;;;;;5042235;28;20025;-43
2023/02/05 09:28:29;;;;;;;17.05;2.80;;;7.60;99.90;;;;;;5042692;28;20033;-42
2023/02/05 09:30:55;;;;;;;22.60;3.42;;;7.70;99.90;;;;;;5042674;28;20027;-43
2023/02/05 09:33:21;;;;;;;21.20;4.10;;;7.70;99.90;;;;;;5042205;28;20457;-43
2023/02/05 09:35:46;;;;;;;20.02;3.22;;;7.70;99.90;;;;;;5043316;28;20059;-43
2023/02/05 09:38:13;;;;;;;14.68;3.28;;;7.70;99.90;;;;;;5042555;28;20025;-43
2023/02/05 09:41:04;;;;;;;19.88;3.08;;;7.80;99.90;;;;;;5041838;28;20055;-43
2023/02/05 09:43:56;;;;;;;18.35;3.63;;;7.80;99.90;;;;;;5043072;28;20036;-42
2023/02/05 09:46:37;;;;;;;20.75;3.75;;;7.80;99.90;;;;;;5041621;28;20036;-42
2023/02/05 09:49:26;;;;;;;23.23;3.47;;;7.80;99.90;;;;;;5042341;28;20068;-44
2023/02/05 09:51:58;;;;;;;16.98;3.63;;;7.90;99.90;;;;;;5042075;28;20037;-43
2023/02/05 09:54:31;;;;;;;25.75;4.78;;;7.90;99.90;;;;;;5033045;28;20029;-42
2023/02/05 09:57:03;;;;;;;16.50;3.15;;;7.90;99.90;;;;;;5042534;28;20032;-43
2023/02/05 09:59:30;;;;;;;17.92;3.65;;;8.00;99.90;;;;;;5041684;28;20110;-43
2023/02/05 10:02:00;;;;;;;18.98;3.95;;;8.00;99.90;;;;;;5042781;28;20115;-43
2023/02/05 10:04:27;;;;;;;16.70;4.28;;;8.10;99.90;;;;;;5042993;28;20381;-43
2023/02/05 10:07:11;;;;;;;19.52;4.07;;;8.10;99.90;;;;;;5041470;28;20013;-43
2023/02/05 10:10:06;;;;;;;24.80;3.67;;;8.10;99.90;;;;;;5042520;28;20032;-43
2023/02/05 10:12:46;;;;;;;28.30;5.68;;;8.20;99.90;;;;;;5042070;28;20033;-43
2023/02/05 10:15:15;;;;;;;18.33;2.95;;;8.20;99.90;;;;;;5021646;28;20156;-43
2023/02/05 10:17:52;;;;;;;20.67;3.90;;;8.20;99.90;;;;;;5037014;28;20041;-43
2023/02/05 10:20:49;;;;;;;22.23;4.40;;;8.20;99.90;;;;;;5022159;28;20030;-43
2023/02/05 10:23:31;;;;;;;18.33;3.17;;;8.20;99.90;;;;;;5040407;28;20114;-43
2023/02/05 10:26:10;;;;;;;18.65;2.85;;;8.30;99.90;;;;;;5041472;28;20572;-42
2023/02/05 10:29:10;;;;;;;19.30;3.38;;;8.30;99.90;;;;;;5040869;28;20350;-43
2023/02/05 10:31:55;;;;;;;19.98;5.32;;;8.30;99.90;;;;;;5041885;28;20029;-43
2023/02/05 10:34:24;;;;;;;15.82;3.05;;;8.40;99.90;;;;;;5041069;28;20045;-43
2023/02/05 10:36:52;;;;;;;15.68;2.95;;;8.40;99.90;;;;;;5041636;28;20041;-43
2023/02/05 10:39:19;;;;;;;17.20;4.13;;;8.40;99.90;;;;;;5042145;28;20021;-43
2023/02/05 10:41:55;;;;;;;13.88;3.03;;;8.50;99.90;;;;;;5041290;28;20031;-43
2023/02/05 10:44:40;;;;;;;18.20;3.22;;;8.50;99.90;;;;;;5038251;28;20775;-43
2023/02/05 10:47:38;;;;;;;20.63;3.78;;;8.60;99.90;;;;;;5040782;28;20113;-43
2023/02/05 10:50:18;;;;;;;22.02;3.92;;;8.60;99.90;;;;;;5029972;28;20068;-43
2023/02/05 10:52:44;;;;;;;18.35;3.40;;;8.60;99.90;;;;;;5040066;28;20100;-43
2023/02/05 10:55:12;;;;;;;15.45;3.20;;;8.60;99.90;;;;;;5041502;28;20029;-43
2023/02/05 10:57:37;;;;;;;16.73;3.88;;;8.60;99.90;;;;;;5040743;28;20035;-43
2023/02/05 11:00:14;;;;;;;17.25;3.45;;;8.60;99.90;;;;;;5041023;28;20017;-43
2023/02/05 11:02:42;;;;;;;20.50;2.90;;;8.60;99.90;;;;;;5040781;28;20044;-43
2023/02/05 11:05:37;;;;;;;18.38;3.40;;;8.60;99.90;;;;;;5041276;28;20380;-42
2023/02/05 11:08:03;;;;;;;25.58;3.88;;;8.70;99.90;;;;;;5041770;28;20017;-42
2023/02/05 11:10:34;;;;;;;23.33;4.22;;;8.60;99.90;;;;;;5040938;28;20485;-44
2023/02/05 11:13:19;;;;;;;20.38;3.97;;;8.70;99.90;;;;;;5041264;28;20033;-42
2023/02/05 11:16:14;;;;;;;22.33;3.97;;;8.60;99.90;;;;;;5041386;28;20045;-43
2023/02/05 11:18:41;;;;;;;21.73;4.43;;;8.60;99.90;;;;;;5040153;28;20029;-44
2023/02/05 11:21:08;;;;;;;18.45;3.28;;;8.60;99.90;;;;;;5041291;28;20612;-44
2023/02/05 11:23:38;;;;;;;22.42;3.78;;;8.60;99.90;;;;;;5040495;28;20033;-43
2023/02/05 11:26:19;;;;;;;22.48;4.07;;;8.70;99.90;;;;;;5041414;28;20048;-44
2023/02/05 11:28:45;;;;;;;19.67;4.75;;;8.80;99.90;;;;;;5040789;28;20049;-43
2023/02/05 11:31:22;;;;;;;22.02;4.78;;;8.80;99.90;;;;;;5039768;28;20758;-43
2023/02/05 11:33:48;;;;;;;30.00;5.63;;;8.80;99.90;;;;;;5040864;28;20118;-43
2023/02/05 11:36:32;;;;;;;21.30;4.30;;;8.80;99.90;;;;;;5040248;28;20028;-44
2023/02/05 11:38:57;;;;;;;20.30;4.43;;;8.90;99.90;;;;;;5039970;28;20017;-44
2023/02/05 11:41:50;;;;;;;20.73;4.07;;;8.90;99.90;;;;;;5040781;28;20135;-44
2023/02/05 11:44:25;;;;;;;29.48;4.97;;;8.90;99.90;;;;;;5041347;28;20029;-44
2023/02/05 11:46:56;;;;;;;27.05;4.22;;;9.00;99.90;;;;;;5039414;28;20831;-44
2023/02/05 11:49:25;;;;;;;19.75;3.78;;;9.00;99.90;;;;;;5040624;28;20057;-44
2023/02/05 11:51:55;;;;;;;18.48;3.97;;;9.00;99.90;;;;;;5039945;28;20101;-43
2023/02/05 11:54:28;;;;;;;16.17;4.07;;;9.00;99.90;;;;;;5041176;28;20017;-44
2023/02/05 11:57:25;;;;;;;26.35;4.95;;;9.00;99.90;;;;;;5040449;28;20127;-44
2023/02/05 11:59:55;;;;;;;16.92;3.60;;;9.00;99.90;;;;;;5036086;28;20072;-44
2023/02/05 12:02:29;;;;;;;19.40;3.83;;;9.00;99.90;;;;;;5040423;28;20033;-43
2023/02/05 12:05:18;;;;;;;21.15;3.63;;;8.90;99.90;;;;;;5044005;28;20017;-44
2023/02/05 12:08:07;;;;;;;15.00;3.70;;;8.90;99.90;;;;;;5034575;28;20021;-44
2023/02/05 12:10:38;;;;;;;21.48;4.10;;;8.90;99.90;;;;;;5044976;28;20758;-43
2023/02/05 12:13:18;;;;;;;15.73;3.40;;;8.90;99.90;;;;;;5043386;28;20087;-43
2023/02/05 12:15:59;;;;;;;19.08;3.80;;;8.90;99.90;;;;;;5043798;28;20052;-43
2023/02/05 12:18:37;;;;;;;22.00;4.90;;;8.90;99.90;;;;;;5044509;28;20037;-44
2023/02/05 12:21:05;;;;;;;18.70;3.85;;;8.90;99.90;;;;;;5043286;28;20095;-43
2023/02/05 12:23:45;;;;;;;16.42;3.42;;;9.00;99.90;;;;;;5044064;28;20075;-43
2023/02/05 12:26:25;;;;;;;15.45;3.70;;;9.00;99.90;;;;;;5044118;28;20466;-42
2023/02/05 12:29:00;;;;;;;24.92;4.22;;;9.00;99.90;;;;;;5043999;28;20040;-44
2023/02/05 12:31:55;;;;;;;18.38;3.72;;;9.00;99.90;;;;;;5044866;28;20028;-43
2023/02/05 12:34:43;;;;;;;18.40;4.00;;;9.00;99.90;;;;;;5043982;28;20049;-43
2023/02/05 12:37:33;;;;;;;17.90;3.67;;;9.00;99.90;;;;;;5043796;28;20072;-44
2023/02/05 12:40:18;;;;;;;20.83;4.55;;;8.90;99.90;;;;;;5024168;28;20038;-44
2023/02/05 12:43:15;;;;;;;17.05;3.40;;;8.90;99.90;;;;;;5040152;28;20055;-44
2023/02/05 12:46:06;;;;;;;17.85;3.97;;;9.00;99.90;;;;;;5034578;28;20037;-44
2023/02/05 12:48:43;;;;;;;18.25;3.50;;;9.20;99.90;;;;;;5039951;28;20032;-43
2023/02/05 12:51:30;;;;;;;21.95;4.15;;;9.30;99.90;;;;;;5043966;28;20051;-43
2023/02/05 12:54:28;;;;;;;17.17;3.75;;;9.30;99.90;;;;;;5042078;28;20044;-43
2023/02/05 12:57:03;;;;;;;14.93;2.70;;;9.40;99.90;;;;;;5042780;28;20033;-44
2023/02/05 12:59:37;;;;;;;22.85;3.95;;;9.50;99.90;;;;;;5044292;28;20468;-43
2023/02/05 13:02:05;;;;;;;18.75;3.42;;;9.60;99.90;;;;;;5043120;28;20056;-43
2023/02/05 13:04:38;;;;;;;8.38;2.40;;;9.60;99.90;;;;;;5043253;28;20035;-44
2023/02/05 13:07:14;;;;;;;16.67;2.70;;;9.50;99.90;;;;;;5043938;28;20029;-44
2023/02/05 13:09:48;;;;;;;17.60;3.60;;;9.40;99.90;;;;;;5032253;28;20045;-43
2023/02/05 13:12:18;;;;;;;21.98;4.28;;;9.40;99.90;;;;;;5042935;28;20056;-44